Time;durP1;ratioP1;P1;durP2;ratioP2;P2;SDS_P1;SDS_P2;PMS_P1;PMS_P2;Temp;Humidity;BMP_temperature;BMP_pressure;BME280_temperature;BME280_humidity;BME280_pressure;Samples;Min_cycle;Max_cycle;Signal;HPM_P1;HPM_P2
2021/10/13 00:02:11;;;;;;;26.15;9.00;;;11.60;92.20;;;;;;4956757;29;20481;-72
2021/10/13 00:09:30;;;;;;;19.08;8.27;;;11.50;92.20;;;;;;4962942;28;20046;-73
2021/10/13 00:11:57;;;;;;;23.25;8.32;;;11.50;92.10;;;;;;4955547;29;20114;-73
2021/10/13 00:14:25;;;;;;;22.73;8.45;;;11.50;92.10;;;;;;4956618;29;20051;-73
2021/10/13 00:16:56;;;;;;;25.88;9.57;;;11.50;92.00;;;;;;4956522;29;20039;-73
2021/10/13 00:19:24;;;;;;;22.33;9.52;;;11.50;92.00;;;;;;4939387;29;20060;-73
2021/10/13 00:21:52;;;;;;;21.02;9.15;;;11.50;92.10;;;;;;4971113;28;20043;-72
2021/10/13 00:24:20;;;;;;;25.30;9.60;;;11.50;92.10;;;;;;4938665;29;20055;-72
2021/10/13 00:26:47;;;;;;;19.73;9.57;;;11.50;92.10;;;;;;4938584;29;20489;-72
2021/10/13 00:29:15;;;;;;;26.45;10.70;;;11.50;92.10;;;;;;4954928;29;20051;-72
2021/10/13 00:31:43;;;;;;;23.40;10.32;;;11.50;92.10;;;;;;4955741;29;20051;-71
2021/10/13 00:34:10;;;;;;;22.75;9.90;;;11.50;92.00;;;;;;4922559;29;20059;-71
2021/10/13 00:36:37;;;;;;;23.08;10.48;;;11.50;92.10;;;;;;4939122;29;20075;-72
2021/10/13 00:39:05;;;;;;;28.40;11.02;;;11.50;92.10;;;;;;4955576;29;20043;-71
2021/10/13 00:41:32;;;;;;;31.00;11.82;;;11.50;92.10;;;;;;4955400;29;20043;-72
2021/10/13 00:44:01;;;;;;;20.95;10.52;;;11.50;92.10;;;;;;4956168;29;20059;-73
2021/10/13 00:46:28;;;;;;;25.95;11.65;;;11.50;92.10;;;;;;4955355;29;20050;-72
2021/10/13 00:48:56;;;;;;;26.98;11.85;;;11.50;92.10;;;;;;4955484;29;20054;-72
2021/10/13 00:51:23;;;;;;;28.42;12.77;;;11.50;92.00;;;;;;4955646;28;20059;-72
2021/10/13 00:53:51;;;;;;;30.38;12.75;;;11.50;92.00;;;;;;4938676;29;20051;-71
2021/10/13 01:01:15;;;;;;;37.50;14.70;;;11.30;92.10;;;;;;4955326;29;20476;-72
2021/10/13 01:04:28;;;;;;;37.38;15.88;;;11.30;92.20;;;;;;4923521;29;20051;-72
2021/10/13 01:06:59;;;;;;;41.33;16.30;;;11.20;92.30;;;;;;4970743;28;20050;-72
2021/10/13 01:14:06;;;;;;;49.50;17.35;;;11.30;92.40;;;;;;4955035;29;20032;-72
2021/10/13 01:16:43;;;;;;;45.53;18.08;;;11.30;92.30;;;;;;4955314;29;20043;-72
2021/10/13 01:19:18;;;;;;;49.67;19.30;;;11.30;92.30;;;;;;4955784;29;20039;-72
2021/10/13 01:22:08;;;;;;;45.75;18.70;;;11.30;92.40;;;;;;4955394;29;20377;-72
2021/10/13 01:25:01;;;;;;;50.00;18.95;;;11.30;92.40;;;;;;4947349;28;20105;-72
2021/10/13 01:27:55;;;;;;;48.87;19.00;;;11.30;92.40;;;;;;4954826;29;20066;-72
2021/10/13 01:30:24;;;;;;;48.50;19.48;;;11.30;92.40;;;;;;4938601;29;20055;-72
2021/10/13 01:32:59;;;;;;;51.40;20.23;;;11.30;92.40;;;;;;4954840;29;20546;-72
2021/10/13 01:35:29;;;;;;;57.60;21.17;;;11.30;92.40;;;;;;4954732;28;20062;-72
2021/10/13 01:38:02;;;;;;;52.70;21.45;;;11.30;92.40;;;;;;4954687;29;20059;-72
2021/10/13 01:40:32;;;;;;;62.50;22.85;;;11.30;92.50;;;;;;4955540;29;20480;-72
2021/10/13 01:43:01;;;;;;;58.53;22.17;;;11.30;92.50;;;;;;4954648;29;20047;-72
2021/10/13 01:45:29;;;;;;;53.25;22.27;;;11.30;92.50;;;;;;4937647;29;20055;-72
2021/10/13 01:47:59;;;;;;;60.38;23.13;;;11.30;92.50;;;;;;4953984;29;20465;-72
2021/10/13 01:50:27;;;;;;;62.53;22.65;;;11.30;92.50;;;;;;4955172;29;20507;-73
2021/10/13 01:52:57;;;;;;;58.67;22.52;;;11.30;92.50;;;;;;4955309;29;20384;-73
2021/10/13 01:55:27;;;;;;;58.80;23.75;;;11.30;92.60;;;;;;4954238;29;20047;-72
2021/10/13 01:57:58;;;;;;;69.20;24.20;;;11.30;92.60;;;;;;4953433;29;20054;-72
2021/10/13 02:00:26;;;;;;;75.13;25.08;;;11.30;92.60;;;;;;4955274;29;20043;-72
2021/10/13 02:02:55;;;;;;;68.50;24.70;;;11.30;92.60;;;;;;4969353;28;20058;-72
2021/10/13 02:05:24;;;;;;;66.30;25.67;;;11.40;92.60;;;;;;4958178;29;20055;-72
2021/10/13 02:07:54;;;;;;;75.25;25.52;;;11.30;92.60;;;;;;4959030;29;20047;-72
2021/10/13 02:10:23;;;;;;;68.68;24.92;;;11.30;92.60;;;;;;4958815;29;20048;-72
2021/10/13 02:12:55;;;;;;;68.82;24.00;;;11.30;92.60;;;;;;4958170;29;20051;-72
2021/10/13 02:15:24;;;;;;;63.28;24.13;;;11.30;92.60;;;;;;4941808;29;20059;-72
2021/10/13 02:17:55;;;;;;;73.28;24.67;;;11.30;92.60;;;;;;4958185;29;20054;-72
2021/10/13 02:20:24;;;;;;;68.05;24.88;;;11.30;92.60;;;;;;4959184;29;20051;-72
2021/10/13 02:22:57;;;;;;;74.22;25.90;;;11.30;92.60;;;;;;4941091;29;20504;-72
2021/10/13 02:25:33;;;;;;;73.70;25.42;;;11.30;92.60;;;;;;4958631;29;20051;-73
2021/10/13 02:28:08;;;;;;;72.25;25.73;;;11.30;92.60;;;;;;4941679;29;20046;-72
2021/10/13 02:30:38;;;;;;;67.60;24.23;;;11.30;92.60;;;;;;4958344;29;20055;-72
2021/10/13 02:33:06;;;;;;;79.72;26.58;;;11.30;92.60;;;;;;4940647;29;20074;-72
2021/10/13 02:35:33;;;;;;;67.70;25.48;;;11.30;92.60;;;;;;4958410;29;20318;-72
2021/10/13 02:38:01;;;;;;;65.63;25.85;;;11.30;92.60;;;;;;4940859;29;20058;-72
2021/10/13 02:40:29;;;;;;;75.18;26.55;;;11.30;92.60;;;;;;4941424;29;20059;-72
2021/10/13 02:42:56;;;;;;;76.15;25.95;;;11.30;92.60;;;;;;4958337;29;20055;-72
2021/10/13 02:45:24;;;;;;;75.88;26.92;;;11.30;92.60;;;;;;4924680;29;20055;-72
2021/10/13 02:47:58;;;;;;;71.60;25.65;;;11.30;92.60;;;;;;4957753;29;20062;-72
2021/10/13 02:50:38;;;;;;;80.47;26.45;;;11.30;92.60;;;;;;4957694;29;20043;-72
2021/10/13 02:53:14;;;;;;;70.65;26.00;;;11.30;92.70;;;;;;4957914;29;20058;-73
2021/10/13 02:55:47;;;;;;;79.47;26.08;;;11.30;92.70;;;;;;4958335;29;20377;-72
2021/10/13 02:58:27;;;;;;;69.97;27.05;;;11.30;92.70;;;;;;4941105;29;20055;-72
2021/10/13 03:00:57;;;;;;;79.43;27.58;;;11.30;92.70;;;;;;4972463;28;20058;-72
2021/10/13 03:03:35;;;;;;;68.22;25.55;;;11.30;92.70;;;;;;4957646;29;20125;-72
2021/10/13 03:06:04;;;;;;;66.72;27.27;;;11.30;92.70;;;;;;4957951;29;20062;-72
2021/10/13 03:08:35;;;;;;;66.22;26.05;;;11.30;92.70;;;;;;4957210;29;20408;-72
2021/10/13 03:11:05;;;;;;;73.68;26.63;;;11.40;92.70;;;;;;4940650;29;20050;-72
2021/10/13 03:13:36;;;;;;;63.33;26.17;;;11.40;92.70;;;;;;4939905;29;20051;-72
2021/10/13 03:16:07;;;;;;;71.18;26.30;;;11.40;92.70;;;;;;4956981;28;20136;-73
2021/10/13 03:18:37;;;;;;;68.20;25.38;;;11.40;92.60;;;;;;4940847;29;20054;-72
2021/10/13 03:21:06;;;;;;;60.85;25.45;;;11.40;92.70;;;;;;4957892;29;20047;-72
2021/10/13 03:23:34;;;;;;;68.13;25.08;;;11.40;92.60;;;;;;4940503;29;20051;-72
2021/10/13 03:26:10;;;;;;;64.07;26.48;;;11.40;92.70;;;;;;4957490;29;20054;-72
2021/10/13 03:28:40;;;;;;;67.22;26.63;;;11.50;92.70;;;;;;4924953;29;20062;-72
2021/10/13 03:31:08;;;;;;;65.32;26.02;;;11.40;92.70;;;;;;4971793;28;20476;-73
2021/10/13 03:33:36;;;;;;;72.97;26.30;;;11.40;92.60;;;;;;4939725;29;20062;-72
2021/10/13 03:40:38;;;;;;;77.82;28.80;;;11.40;92.70;;;;;;4957172;29;20027;-72
2021/10/13 03:43:08;;;;;;;85.18;29.30;;;11.40;92.50;;;;;;4957060;29;20402;-72
2021/10/13 03:45:36;;;;;;;82.63;29.13;;;11.30;92.50;;;;;;4939452;29;20054;-73
2021/10/13 03:48:04;;;;;;;90.45;29.48;;;11.40;92.60;;;;;;4939425;29;20058;-72
2021/10/13 03:55:09;;;;;;;94.15;30.88;;;11.40;92.80;;;;;;4956431;28;20369;-72
2021/10/13 03:57:37;;;;;;;97.13;30.98;;;11.40;92.70;;;;;;4956356;29;20047;-72
2021/10/13 04:04:56;;;;;;;101.82;31.48;;;11.40;92.80;;;;;;4957854;28;20054;-72
2021/10/13 04:07:24;;;;;;;117.00;34.00;;;11.40;92.80;;;;;;4956696;29;20054;-72
2021/10/13 04:09:51;;;;;;;114.35;32.40;;;11.40;92.80;;;;;;4955793;29;20066;-72
2021/10/13 04:12:19;;;;;;;114.82;33.95;;;11.40;92.80;;;;;;4956460;29;20054;-73
2021/10/13 04:14:47;;;;;;;110.50;34.75;;;11.40;92.90;;;;;;4956503;29;20369;-72
2021/10/13 04:17:14;;;;;;;129.93;35.90;;;11.50;93.00;;;;;;4956045;29;20507;-72
2021/10/13 04:19:42;;;;;;;115.53;35.25;;;11.50;93.10;;;;;;4955963;29;20066;-72
2021/10/13 04:22:09;;;;;;;132.13;36.40;;;11.50;93.10;;;;;;4956118;29;20043;-72
2021/10/13 04:24:37;;;;;;;116.57;35.15;;;11.40;93.10;;;;;;4938203;29;20512;-72
2021/10/13 04:27:05;;;;;;;123.38;36.00;;;11.40;93.10;;;;;;4938221;29;20508;-72
2021/10/13 04:29:32;;;;;;;115.00;34.70;;;11.50;93.20;;;;;;4922730;29;20052;-72
2021/10/13 04:32:00;;;;;;;119.57;36.45;;;11.50;93.20;;;;;;4956216;29;20046;-72
2021/10/13 04:34:27;;;;;;;112.50;34.05;;;11.50;93.20;;;;;;4956149;29;20051;-72
2021/10/13 04:36:55;;;;;;;115.13;34.47;;;11.50;93.20;;;;;;4955537;29;20062;-72
2021/10/13 04:39:23;;;;;;;121.50;35.45;;;11.50;93.20;;;;;;4938425;29;20369;-72
2021/10/13 04:41:51;;;;;;;120.63;35.10;;;11.50;93.30;;;;;;4955526;29;20058;-72
2021/10/13 04:44:18;;;;;;;104.60;34.03;;;11.60;93.30;;;;;;4956058;29;20337;-72
2021/10/13 04:46:46;;;;;;;102.90;34.55;;;11.60;93.30;;;;;;4955282;29;20055;-72
2021/10/13 04:49:14;;;;;;;111.47;34.17;;;11.60;93.30;;;;;;4970833;28;20169;-73
2021/10/13 04:51:41;;;;;;;104.20;33.20;;;11.60;93.30;;;;;;4955174;29;20548;-72
2021/10/13 04:54:08;;;;;;;103.75;32.70;;;11.60;93.30;;;;;;4938378;29;20404;-72
2021/10/13 04:56:38;;;;;;;107.68;35.17;;;11.70;93.30;;;;;;4938692;29;20087;-72
2021/10/13 04:59:05;;;;;;;100.80;33.80;;;11.70;93.30;;;;;;4969245;28;20506;-73
2021/10/13 05:01:33;;;;;;;104.40;33.42;;;11.70;93.40;;;;;;4938227;29;20039;-72
2021/10/13 05:04:01;;;;;;;91.95;32.13;;;11.70;93.40;;;;;;4954876;29;20051;-73
2021/10/13 05:06:28;;;;;;;101.65;33.72;;;11.70;93.40;;;;;;4937905;29;20489;-72
2021/10/13 05:08:56;;;;;;;102.65;33.88;;;11.70;93.40;;;;;;4955494;29;20400;-73
2021/10/13 05:11:24;;;;;;;101.88;32.78;;;11.80;93.40;;;;;;4969807;28;20409;-72
2021/10/13 05:13:51;;;;;;;98.13;32.58;;;11.70;93.40;;;;;;4937997;29;20051;-72
2021/10/13 05:16:19;;;;;;;95.05;32.60;;;11.80;93.40;;;;;;4955045;29;20048;-72
2021/10/13 05:18:46;;;;;;;111.53;33.63;;;11.70;93.40;;;;;;4954838;29;20473;-73
2021/10/13 05:21:15;;;;;;;102.40;34.10;;;11.80;93.40;;;;;;4937661;29;20400;-72
2021/10/13 05:23:42;;;;;;;106.05;31.83;;;11.80;93.40;;;;;;4937360;29;20086;-72
2021/10/13 05:26:10;;;;;;;120.30;32.63;;;11.80;93.40;;;;;;4954746;29;20051;-72
2021/10/13 05:28:37;;;;;;;126.72;34.65;;;11.80;93.40;;;;;;4938163;29;20051;-72
2021/10/13 05:31:06;;;;;;;103.60;33.15;;;11.80;93.40;;;;;;4954533;29;20412;-72
2021/10/13 05:33:33;;;;;;;87.25;27.83;;;11.80;93.40;;;;;;4954211;29;20492;-73
2021/10/13 05:36:01;;;;;;;77.63;27.73;;;11.80;93.50;;;;;;4954529;29;20051;-72
2021/10/13 05:38:49;;;;;;;77.60;28.27;;;11.80;93.50;;;;;;4953423;28;20054;-72
2021/10/13 05:41:16;;;;;;;94.38;29.70;;;11.80;93.50;;;;;;4969747;28;20047;-72
2021/10/13 05:43:44;;;;;;;84.47;28.35;;;11.80;93.60;;;;;;4954084;29;20055;-72
2021/10/13 05:46:11;;;;;;;83.65;29.05;;;11.90;93.60;;;;;;4954461;29;20059;-72
2021/10/13 05:48:39;;;;;;;84.65;29.38;;;11.90;93.60;;;;;;4954140;29;20519;-72
2021/10/13 05:51:07;;;;;;;79.38;27.67;;;12.00;93.70;;;;;;4954983;29;20051;-72
2021/10/13 05:53:35;;;;;;;82.38;28.45;;;12.00;93.70;;;;;;4969309;28;20054;-72
2021/10/13 05:56:03;;;;;;;87.50;29.27;;;12.00;93.70;;;;;;4954378;29;20066;-72
2021/10/13 05:58:30;;;;;;;78.57;27.27;;;12.00;93.70;;;;;;4955124;29;20047;-72
2021/10/13 06:00:58;;;;;;;84.93;26.90;;;12.00;93.70;;;;;;4954344;29;20051;-72
2021/10/13 06:03:26;;;;;;;93.68;27.83;;;12.10;93.80;;;;;;4954839;29;20051;-72
2021/10/13 06:05:54;;;;;;;85.88;27.50;;;12.10;93.80;;;;;;4954549;29;20044;-72
2021/10/13 06:08:22;;;;;;;95.97;29.20;;;12.10;93.80;;;;;;4937842;29;20051;-71
2021/10/13 06:10:50;;;;;;;95.82;28.75;;;12.10;93.80;;;;;;4954440;29;20054;-72
2021/10/13 06:13:17;;;;;;;81.80;25.67;;;12.10;93.80;;;;;;4937762;29;20043;-72
2021/10/13 06:15:48;;;;;;;79.07;25.20;;;12.10;93.80;;;;;;4954373;29;20055;-71
2021/10/13 06:18:19;;;;;;;74.07;23.00;;;12.10;93.80;;;;;;4954692;29;20047;-71
2021/10/13 06:20:47;;;;;;;64.80;20.58;;;12.20;93.80;;;;;;4969016;28;20385;-71
2021/10/13 06:23:14;;;;;;;52.40;15.10;;;12.10;93.80;;;;;;4968360;28;20066;-70
2021/10/13 06:25:43;;;;;;;36.88;12.30;;;12.10;93.90;;;;;;4954555;29;20078;-70
2021/10/13 06:28:10;;;;;;;36.58;12.70;;;12.20;93.90;;;;;;4954374;29;20070;-71
2021/10/13 06:30:43;;;;;;;42.92;13.25;;;12.20;94.00;;;;;;4954469;29;20055;-71
2021/10/13 06:33:11;;;;;;;39.50;14.18;;;12.20;94.00;;;;;;4954282;29;20054;-72
2021/10/13 06:35:39;;;;;;;37.17;14.43;;;12.20;94.00;;;;;;4954485;29;20058;-72
2021/10/13 06:38:08;;;;;;;36.55;13.88;;;12.20;94.00;;;;;;4953048;29;20106;-72
2021/10/13 06:40:35;;;;;;;44.90;15.38;;;12.30;94.10;;;;;;4954084;29;20051;-72
2021/10/13 06:43:04;;;;;;;41.60;15.18;;;12.30;94.10;;;;;;4953198;29;20055;-72
2021/10/13 06:45:35;;;;;;;43.20;15.63;;;12.30;94.10;;;;;;4954835;29;20055;-71
2021/10/13 06:48:04;;;;;;;42.22;15.20;;;12.30;94.10;;;;;;4954725;29;20054;-73
2021/10/13 06:50:33;;;;;;;47.30;16.65;;;12.30;94.10;;;;;;4938949;29;20261;-72
2021/10/13 06:53:04;;;;;;;47.10;16.85;;;12.30;94.20;;;;;;4957209;29;20058;-72
2021/10/13 06:55:32;;;;;;;49.40;17.25;;;12.30;94.20;;;;;;4957279;29;20055;-72
2021/10/13 06:58:00;;;;;;;49.17;16.35;;;12.30;94.30;;;;;;4957420;29;20488;-72
2021/10/13 07:00:27;;;;;;;48.47;16.88;;;12.40;94.30;;;;;;4957116;29;20496;-73
2021/10/13 07:02:55;;;;;;;42.75;15.82;;;12.40;94.30;;;;;;4957352;29;20055;-72
2021/10/13 07:09:57;;;;;;;33.78;12.65;;;12.40;94.30;;;;;;4957242;28;20039;-72
2021/10/13 07:12:25;;;;;;;32.50;11.93;;;12.50;94.20;;;;;;4957898;29;20047;-72
2021/10/13 07:14:52;;;;;;;26.65;11.45;;;12.40;94.20;;;;;;4955931;29;20094;-72
2021/10/13 07:17:20;;;;;;;15.23;8.43;;;12.50;94.30;;;;;;4955860;29;20062;-72
2021/10/13 07:24:20;;;;;;;15.93;7.80;;;12.50;94.30;;;;;;4955808;29;20039;-72
2021/10/13 07:26:48;;;;;;;10.73;6.70;;;12.60;94.20;;;;;;4956266;29;20055;-72
2021/10/13 07:29:15;;;;;;;11.45;7.28;;;12.50;94.20;;;;;;4957107;29;20051;-72
2021/10/13 07:31:43;;;;;;;10.45;8.00;;;12.60;94.20;;;;;;4957079;29;20054;-73
2021/10/13 07:34:11;;;;;;;9.07;6.47;;;12.60;94.10;;;;;;4957205;29;20531;-73
2021/10/13 07:36:38;;;;;;;11.32;8.27;;;12.60;94.10;;;;;;4957548;29;20384;-72
2021/10/13 07:39:07;;;;;;;11.00;8.27;;;12.60;94.10;;;;;;4957011;29;20118;-72
2021/10/13 07:41:35;;;;;;;12.43;8.80;;;12.60;94.10;;;;;;4956341;29;20047;-73
2021/10/13 07:48:36;;;;;;;16.02;10.25;;;12.70;94.10;;;;;;4956499;28;20424;-73
2021/10/13 07:51:04;;;;;;;15.68;10.82;;;12.70;94.10;;;;;;4957264;29;20051;-73
2021/10/13 07:53:32;;;;;;;16.00;10.60;;;12.70;94.00;;;;;;4955890;29;20047;-73
2021/10/13 07:55:59;;;;;;;18.88;11.77;;;12.80;94.00;;;;;;4956886;29;20062;-73
2021/10/13 08:03:01;;;;;;;19.73;14.18;;;12.80;94.10;;;;;;4956120;29;20027;-73
2021/10/13 08:05:29;;;;;;;23.60;15.50;;;12.90;93.90;;;;;;4956151;29;20044;-73
2021/10/13 08:07:57;;;;;;;28.20;17.67;;;12.90;93.80;;;;;;4956557;29;20047;-72
2021/10/13 08:10:24;;;;;;;34.58;21.02;;;12.90;93.80;;;;;;4956072;29;20058;-73
2021/10/13 08:12:52;;;;;;;32.88;21.25;;;12.90;93.80;;;;;;4956104;29;20492;-72
2021/10/13 08:19:54;;;;;;;31.83;20.65;;;13.00;93.80;;;;;;4956669;28;20042;-73
2021/10/13 08:22:22;;;;;;;30.05;20.75;;;13.10;93.70;;;;;;4955938;29;20140;-73
2021/10/13 08:24:49;;;;;;;28.17;19.75;;;13.10;93.60;;;;;;4956514;29;20047;-73
2021/10/13 08:27:17;;;;;;;24.75;18.33;;;13.20;93.50;;;;;;4923415;29;20389;-73
2021/10/13 08:29:44;;;;;;;21.55;16.95;;;13.20;93.40;;;;;;4954882;29;20074;-73
2021/10/13 08:32:12;;;;;;;22.45;18.35;;;13.20;93.30;;;;;;4954896;29;20055;-73
2021/10/13 08:34:40;;;;;;;19.70;16.23;;;13.30;93.30;;;;;;4938997;29;20039;-73
2021/10/13 08:37:08;;;;;;;24.50;16.73;;;13.30;93.20;;;;;;4923249;29;20055;-73
2021/10/13 08:39:35;;;;;;;17.35;15.35;;;13.30;93.20;;;;;;4955042;29;20527;-73
2021/10/13 08:42:03;;;;;;;19.38;13.05;;;13.40;93.10;;;;;;4970227;28;20047;-73
2021/10/13 08:44:32;;;;;;;16.27;12.70;;;13.40;93.00;;;;;;4938388;29;20489;-73
2021/10/13 08:47:00;;;;;;;17.38;13.60;;;13.50;92.80;;;;;;4938292;29;20051;-73
2021/10/13 08:49:28;;;;;;;15.98;11.32;;;13.50;92.70;;;;;;4939050;29;20152;-73
2021/10/13 08:51:56;;;;;;;12.57;10.95;;;13.50;92.60;;;;;;4923425;29;20412;-72
2021/10/13 08:54:23;;;;;;;12.55;11.27;;;13.60;92.40;;;;;;4955881;29;20381;-73
2021/10/13 08:56:51;;;;;;;14.15;9.80;;;13.60;92.20;;;;;;4955878;29;20468;-73
2021/10/13 08:59:38;;;;;;;12.02;9.75;;;13.60;92.10;;;;;;4939027;29;20055;-73
2021/10/13 09:02:07;;;;;;;14.00;10.52;;;13.60;91.90;;;;;;4955436;28;20058;-75
2021/10/13 09:05:09;;;;;;;12.35;10.48;;;13.60;91.80;;;;;;4955476;29;20055;-74
2021/10/13 09:07:38;;;;;;;10.73;9.70;;;13.70;91.80;;;;;;4939053;29;20047;-73
2021/10/13 09:10:08;;;;;;;11.20;9.85;;;13.80;91.50;;;;;;4970026;28;20054;-73
2021/10/13 09:12:39;;;;;;;14.52;12.88;;;13.80;91.40;;;;;;4955528;28;20051;-74
2021/10/13 09:15:14;;;;;;;15.65;13.85;;;13.80;91.40;;;;;;4955961;29;20058;-72
2021/10/13 09:17:58;;;;;;;21.23;16.90;;;13.80;91.40;;;;;;4969062;28;20047;-72
2021/10/13 09:20:34;;;;;;;21.73;19.40;;;13.80;91.50;;;;;;4955672;29;20526;-73
2021/10/13 09:23:20;;;;;;;30.90;21.00;;;13.80;91.70;;;;;;4955512;29;20050;-72
2021/10/13 09:26:20;;;;;;;23.05;19.58;;;13.90;91.70;;;;;;4954459;29;20051;-72
2021/10/13 09:28:58;;;;;;;29.35;21.40;;;13.90;91.50;;;;;;4943868;29;20062;-74
2021/10/13 09:31:29;;;;;;;22.95;16.27;;;14.00;91.50;;;;;;4955335;29;20051;-72
2021/10/13 09:34:03;;;;;;;21.20;14.13;;;14.10;91.40;;;;;;4953792;29;20386;-73
2021/10/13 09:36:39;;;;;;;16.65;14.52;;;14.20;91.10;;;;;;4938181;29;20051;-72
2021/10/13 09:39:18;;;;;;;23.77;16.75;;;14.20;90.70;;;;;;4937847;29;20051;-73
2021/10/13 09:42:04;;;;;;;24.95;18.85;;;14.20;90.60;;;;;;4953933;29;20401;-74
2021/10/13 09:44:37;;;;;;;24.70;17.92;;;14.30;90.60;;;;;;4955112;29;20051;-73
2021/10/13 09:47:08;;;;;;;16.92;14.50;;;14.30;90.40;;;;;;4954875;29;20388;-72
2021/10/13 09:49:42;;;;;;;18.05;13.20;;;14.50;90.20;;;;;;4954913;29;20047;-72
2021/10/13 09:52:13;;;;;;;14.65;12.38;;;14.50;89.90;;;;;;4955049;29;20051;-72
2021/10/13 09:54:46;;;;;;;17.88;13.00;;;14.70;89.50;;;;;;4955357;29;20051;-73
2021/10/13 09:57:24;;;;;;;14.77;11.30;;;14.80;89.40;;;;;;4955422;29;20122;-72
2021/10/13 09:59:58;;;;;;;13.73;10.50;;;14.90;88.70;;;;;;4936490;29;20298;-72
2021/10/13 10:02:30;;;;;;;11.25;7.72;;;15.00;88.70;;;;;;4955268;29;20047;-72
2021/10/13 10:05:23;;;;;;;10.23;7.78;;;15.00;88.30;;;;;;4954315;29;20054;-72
2021/10/13 10:08:02;;;;;;;9.57;6.75;;;15.00;88.40;;;;;;4954163;28;20062;-72
2021/10/13 10:10:31;;;;;;;9.18;5.25;;;15.00;88.50;;;;;;4955011;29;20047;-72
2021/10/13 10:13:03;;;;;;;5.90;4.93;;;14.90;88.30;;;;;;4937217;29;20043;-73
2021/10/13 10:15:49;;;;;;;11.13;5.30;;;14.90;88.20;;;;;;4953728;28;20393;-74
2021/10/13 10:18:30;;;;;;;6.95;4.55;;;14.80;88.40;;;;;;4937291;29;20055;-73
2021/10/13 10:21:23;;;;;;;5.45;4.70;;;14.80;88.20;;;;;;4937818;29;20091;-72
2021/10/13 10:23:54;;;;;;;5.30;4.38;;;14.60;88.40;;;;;;4954784;28;20047;-72
2021/10/13 10:26:24;;;;;;;6.35;3.92;;;14.40;88.60;;;;;;4956865;29;20056;-72
2021/10/13 10:28:57;;;;;;;3.80;3.40;;;14.30;88.90;;;;;;4958331;29;20131;-72
2021/10/13 10:31:27;;;;;;;6.30;4.43;;;14.30;88.90;;;;;;4957719;29;20508;-72
2021/10/13 10:34:10;;;;;;;3.92;3.00;;;14.20;89.00;;;;;;4941133;29;20382;-72
2021/10/13 10:36:40;;;;;;;7.82;4.43;;;14.20;89.10;;;;;;4958028;29;20051;-72
2021/10/13 10:39:17;;;;;;;6.45;3.90;;;14.20;89.30;;;;;;4941171;29;20412;-72
2021/10/13 10:41:53;;;;;;;5.47;3.50;;;14.30;89.40;;;;;;4957898;29;20050;-72
2021/10/13 10:44:33;;;;;;;8.25;3.90;;;14.30;89.00;;;;;;4958605;29;20054;-72
2021/10/13 10:47:04;;;;;;;5.28;3.65;;;14.30;88.90;;;;;;4958059;29;20055;-72
2021/10/13 10:49:47;;;;;;;8.40;3.78;;;14.30;88.70;;;;;;4958036;29;20047;-73
2021/10/13 10:52:24;;;;;;;4.78;3.67;;;14.30;88.60;;;;;;4925192;29;20392;-73
2021/10/13 10:54:52;;;;;;;6.65;4.00;;;14.30;88.50;;;;;;4956724;29;20051;-73
2021/10/13 10:57:35;;;;;;;7.50;4.13;;;14.30;88.60;;;;;;4957352;29;20051;-73
2021/10/13 11:00:09;;;;;;;6.55;4.13;;;14.30;88.50;;;;;;4940625;29;20051;-72
2021/10/13 11:02:36;;;;;;;;;;;14.30;88.60;;;;;;4925361;29;20059;-73
2021/10/13 11:05:12;;;;;;;9.75;4.45;;;14.20;88.60;;;;;;4948550;29;19933;-73
2021/10/13 11:07:42;;;;;;;7.53;4.75;;;14.20;88.70;;;;;;4956093;29;20055;-73
2021/10/13 11:10:12;;;;;;;5.97;4.50;;;14.10;88.90;;;;;;4956039;29;20051;-72
2021/10/13 11:12:58;;;;;;;6.82;4.65;;;14.10;89.10;;;;;;4957337;28;20060;-73
2021/10/13 11:15:27;;;;;;;6.80;2.97;;;14.00;89.30;;;;;;4957853;29;20495;-73
2021/10/13 11:17:56;;;;;;;9.18;2.90;;;14.00;88.90;;;;;;4956515;29;20408;-73
2021/10/13 11:20:25;;;;;;;6.70;3.00;;;14.00;88.70;;;;;;4940033;29;20362;-73
2021/10/13 11:22:58;;;;;;;4.93;2.75;;;14.00;88.60;;;;;;4957172;29;20044;-73
2021/10/13 11:25:27;;;;;;;7.25;2.95;;;14.00;88.10;;;;;;4956499;28;20055;-72
2021/10/13 11:32:26;;;;;;;4.00;2.40;;;14.10;88.10;;;;;;4957128;29;20051;-73
2021/10/13 11:35:00;;;;;;;3.60;2.35;;;14.10;87.90;;;;;;4956035;28;20429;-73
2021/10/13 11:37:29;;;;;;;5.63;2.13;;;14.10;87.70;;;;;;4956376;28;20059;-73
2021/10/13 11:39:57;;;;;;;5.90;2.10;;;14.20;87.50;;;;;;4971540;28;20047;-73
2021/10/13 11:42:27;;;;;;;2.40;1.35;;;14.20;87.50;;;;;;4956820;29;20412;-73
2021/10/13 11:44:56;;;;;;;2.05;1.30;;;14.20;87.00;;;;;;4956744;29;20059;-73
2021/10/13 11:47:35;;;;;;;1.13;1.02;;;14.10;86.70;;;;;;4955552;29;20047;-73
2021/10/13 11:50:15;;;;;;;6.03;1.50;;;14.10;86.50;;;;;;4956269;29;20051;-73
2021/10/13 11:52:49;;;;;;;3.17;1.20;;;14.10;86.30;;;;;;4957418;29;20050;-73
2021/10/13 11:55:19;;;;;;;4.60;1.63;;;14.10;86.10;;;;;;4957005;29;20503;-73
2021/10/13 11:58:01;;;;;;;1.73;1.25;;;14.10;86.10;;;;;;4956533;29;20051;-73
2021/10/13 12:00:30;;;;;;;5.53;1.10;;;14.20;85.90;;;;;;4955767;29;20051;-72
2021/10/13 12:03:02;;;;;;;3.70;1.20;;;14.20;85.60;;;;;;4956581;29;20051;-73
2021/10/13 12:05:32;;;;;;;1.80;1.13;;;14.20;85.60;;;;;;4955278;29;20043;-71
2021/10/13 12:08:12;;;;;;;3.95;1.48;;;14.30;85.30;;;;;;4954352;29;20055;-73
2021/10/13 12:10:49;;;;;;;2.35;1.38;;;14.30;85.30;;;;;;4971969;28;20043;-73
2021/10/13 12:13:19;;;;;;;3.05;1.55;;;14.40;85.20;;;;;;4957040;29;20052;-73
2021/10/13 12:15:48;;;;;;;3.90;1.70;;;14.30;85.00;;;;;;4956975;29;20484;-73
2021/10/13 12:18:20;;;;;;;2.47;1.40;;;14.30;85.20;;;;;;4954656;29;20051;-73
2021/10/13 12:21:16;;;;;;;2.75;1.50;;;14.30;85.30;;;;;;4955619;29;20047;-72
2021/10/13 12:23:55;;;;;;;2.13;1.40;;;14.40;85.20;;;;;;4956382;29;20058;-72
2021/10/13 12:26:25;;;;;;;3.83;1.50;;;14.50;85.10;;;;;;4971560;28;20488;-72
2021/10/13 12:29:05;;;;;;;4.45;1.50;;;14.50;85.00;;;;;;4955474;29;20477;-73
2021/10/13 12:31:32;;;;;;;4.25;1.30;;;14.70;85.10;;;;;;4956314;29;20050;-72
2021/10/13 12:34:01;;;;;;;2.65;1.30;;;14.70;84.80;;;;;;4956158;29;20138;-72
2021/10/13 12:36:41;;;;;;;2.53;1.33;;;14.80;84.40;;;;;;4939176;29;20047;-72
2021/10/13 12:39:16;;;;;;;2.22;1.20;;;15.00;84.30;;;;;;4956437;29;20059;-72
2021/10/13 12:41:48;;;;;;;2.75;1.38;;;15.10;84.20;;;;;;4954987;29;20142;-72
2021/10/13 12:44:22;;;;;;;3.50;1.48;;;15.20;84.20;;;;;;4955071;28;20058;-72
2021/10/13 12:47:00;;;;;;;4.03;1.27;;;15.30;83.50;;;;;;4970166;28;20058;-71
2021/10/13 12:49:33;;;;;;;3.55;1.60;;;15.30;82.70;;;;;;4956189;29;20062;-72
2021/10/13 12:52:05;;;;;;;3.70;1.40;;;15.10;82.70;;;;;;4956235;29;20039;-71
2021/10/13 12:54:38;;;;;;;1.88;1.30;;;15.10;82.90;;;;;;4955786;29;20051;-72
2021/10/13 12:57:10;;;;;;;;;;;15.00;83.20;;;;;;4956189;29;20051;-72
2021/10/13 12:59:38;;;;;;;5.18;1.88;;;15.00;83.30;;;;;;4954920;29;19923;-72
2021/10/13 13:02:07;;;;;;;3.83;1.80;;;15.00;83.40;;;;;;4952846;29;20059;-72
2021/10/13 13:04:35;;;;;;;3.58;1.50;;;15.00;83.60;;;;;;4955534;29;20055;-72
2021/10/13 13:07:10;;;;;;;2.58;1.52;;;15.00;83.50;;;;;;4970002;28;20484;-72
2021/10/13 13:09:40;;;;;;;3.67;1.17;;;15.00;83.40;;;;;;4954821;28;20074;-71
2021/10/13 13:12:08;;;;;;;9.10;1.17;;;14.90;82.80;;;;;;4955517;29;20047;-71
2021/10/13 13:14:36;;;;;;;3.17;1.15;;;14.80;82.70;;;;;;4955572;29;20385;-72
2021/10/13 13:17:08;;;;;;;2.22;1.10;;;14.80;82.60;;;;;;4955416;29;20051;-72
2021/10/13 13:19:38;;;;;;;3.38;1.40;;;14.80;82.90;;;;;;4955918;29;20417;-72
2021/10/13 13:22:06;;;;;;;4.53;1.60;;;14.80;83.00;;;;;;4954223;29;20059;-72
2021/10/13 13:24:34;;;;;;;3.08;1.40;;;14.90;83.00;;;;;;4955638;29;20047;-72
2021/10/13 13:27:01;;;;;;;3.83;1.52;;;15.00;82.80;;;;;;4938362;29;20389;-72
2021/10/13 13:29:29;;;;;;;3.72;1.80;;;15.20;82.80;;;;;;4955229;29;20412;-72
2021/10/13 13:31:57;;;;;;;3.83;1.70;;;15.30;82.60;;;;;;4955362;29;20051;-72
2021/10/13 13:34:30;;;;;;;2.35;2.03;;;15.30;82.00;;;;;;4955417;29;20067;-72
2021/10/13 13:36:57;;;;;;;3.33;2.17;;;15.40;81.80;;;;;;4954911;29;20047;-72
2021/10/13 13:39:25;;;;;;;4.22;2.40;;;15.40;81.30;;;;;;4954463;29;20066;-72
2021/10/13 13:41:53;;;;;;;4.95;2.90;;;15.30;81.50;;;;;;4938344;29;20051;-72
2021/10/13 13:44:20;;;;;;;3.92;3.05;;;15.30;82.00;;;;;;4954869;29;20051;-70
2021/10/13 13:46:49;;;;;;;8.45;3.60;;;15.40;82.20;;;;;;4954753;29;20059;-71
2021/10/13 13:49:17;;;;;;;5.78;3.67;;;15.40;82.10;;;;;;4938220;29;20480;-71